Mindoro — SVAS8 — position and weather

sailwx.info

Track history (hours):
 
Tides and Currents Weather Stations Pressure Air Temp Water Temp Dewpoint Dewpoint Depression Visibility Wind Speed Wind Dir Waves Ship Positions

Mindoro

Last reported at 2014-Dec-15 06:14 UTC. Time now 2014-Dec-22 11:21 UTC.
Position N 01°15' E 104°06'.

Length 245 m; draft 13.7 m.

Type: Tanker. MMSI: 240924000.

Date/timePositionNaut miles runAvg speedWind from/ knotsBaromVisibWave heightAir tempDewpointWater temp
2014-Dec-15 06:14N 01°15' E 104°06'710.7
2014-Dec-15 05:33N 01°14' E 103°59'5 2.4
2014-Dec-15 03:24N 01°15' E 103°53'0 0.0
2014-Dec-15 02:30N 01°15' E 103°53'0 0.0
2014-Dec-15 01:09N 01°15' E 103°53'0 0.1
2014-Dec-15 00:18N 01°15' E 103°53'0 0.0
2014-Dec-14 23:24N 01°15' E 103°53'0 0.0
2014-Dec-14 22:24N 01°15' E 103°53'0 0.0
2014-Dec-14 21:18N 01°15' E 103°53'0 0.0
2014-Dec-14 20:33N 01°15' E 103°53'0 0.0
2014-Dec-14 17:18N 01°15' E 103°53'0 0.0
2014-Dec-14 16:33N 01°15' E 103°53'0 0.0
2014-Dec-14 15:33N 01°15' E 103°53'0 0.0
2014-Dec-14 14:30N 01°15' E 103°53'0 0.1
2014-Dec-14 13:33N 01°15' E 103°53'0 0.2
2014-Dec-14 12:33N 01°15' E 103°54'0 0.1
2014-Dec-14 11:27N 01°15' E 103°54'2 2.1
2014-Dec-14 10:33N 01°15' E 103°55'3 2.5
2014-Dec-14 09:33N 01°15' E 103°58'94 9.0
2014-Dec-13 23:05N 01°47' E 102°30'  
Track history (hours):
 
Tides and Currents Weather Stations Pressure Air Temp Water Temp Dewpoint Dewpoint Depression Visibility Wind Speed Wind Dir Waves Ship Positions

Mindoro

Last reported at 2014-Dec-15 06:14 UTC. Time now 2014-Dec-22 11:21 UTC.
Position N 01°15' E 104°06'.

Length 245 m; draft 13.7 m.

Type: Tanker. MMSI: 240924000.

Date/timePositionNaut miles runAvg speedWind from/ knotsBaromVisibWave heightAir tempDewpointWater temp
2014-Dec-15 06:14N 01°15' E 104°06'710.7
2014-Dec-15 05:33N 01°14' E 103°59'5 2.4
2014-Dec-15 03:24N 01°15' E 103°53'0 0.0
2014-Dec-15 02:30N 01°15' E 103°53'0 0.0
2014-Dec-15 01:09N 01°15' E 103°53'0 0.1
2014-Dec-15 00:18N 01°15' E 103°53'0 0.0
2014-Dec-14 23:24N 01°15' E 103°53'0 0.0
2014-Dec-14 22:24N 01°15' E 103°53'0 0.0
2014-Dec-14 21:18N 01°15' E 103°53'0 0.0
2014-Dec-14 20:33N 01°15' E 103°53'0 0.0
2014-Dec-14 17:18N 01°15' E 103°53'0 0.0
2014-Dec-14 16:33N 01°15' E 103°53'0 0.0
2014-Dec-14 15:33N 01°15' E 103°53'0 0.0
2014-Dec-14 14:30N 01°15' E 103°53'0 0.1
2014-Dec-14 13:33N 01°15' E 103°53'0 0.2
2014-Dec-14 12:33N 01°15' E 103°54'0 0.1
2014-Dec-14 11:27N 01°15' E 103°54'2 2.1
2014-Dec-14 10:33N 01°15' E 103°55'3 2.5
2014-Dec-14 09:33N 01°15' E 103°58'94 9.0
2014-Dec-13 23:05N 01°47' E 102°30'  

Dump ship's entire track history